Time;durP1;ratioP1;P1;durP2;ratioP2;P2;SDS_P1;SDS_P2;PMS_P1;PMS_P2;Temp;Humidity;BMP_temperature;BMP_pressure;BME280_temperature;BME280_humidity;BME280_pressure;Samples;Min_cycle;Max_cycle;Signal;HPM_P1;HPM_P2
2023/01/08 00:01:49;;;;;;;4.13;3.57;;;9.20;1.00;;;;;;4956231;29;20220;-48
2023/01/08 00:04:16;;;;;;;4.43;3.80;;;9.20;1.00;;;;;;4947157;28;20205;-48
2023/01/08 00:06:42;;;;;;;5.97;3.83;;;9.10;1.00;;;;;;4955607;29;20449;-47
2023/01/08 00:09:09;;;;;;;4.93;3.60;;;9.20;81.60;;;;;;4939203;29;20429;-48
2023/01/08 00:11:35;;;;;;;5.93;3.77;;;9.30;1.00;;;;;;4955573;29;20580;-48
2023/01/08 00:14:01;;;;;;;4.53;3.97;;;9.20;1.00;;;;;;4954395;29;20917;-48
2023/01/08 00:16:27;;;;;;;10.07;4.50;;;9.20;1.00;;;;;;4956067;29;20272;-48
2023/01/08 00:18:52;;;;;;;4.20;3.67;;;9.20;1.00;;;;;;4955633;29;20632;-48
2023/01/08 00:21:18;;;;;;;3.83;3.43;;;9.20;1.00;;;;;;4955192;29;20622;-48
2023/01/08 00:23:43;;;;;;;4.73;3.70;;;9.10;71.80;;;;;;4955077;28;20280;-48
2023/01/08 00:26:10;;;;;;;6.40;3.67;;;9.20;99.90;;;;;;4954706;29;20198;-48
2023/01/08 00:28:37;;;;;;;4.43;3.70;;;9.20;1.00;;;;;;4955805;29;20186;-48
2023/01/08 00:31:03;;;;;;;4.70;4.20;;;9.20;1.00;;;;;;4954818;29;20478;-48
2023/01/08 00:33:30;;;;;;;5.30;3.60;;;9.20;1.00;;;;;;4954458;29;20798;-48
2023/01/08 00:35:55;;;;;;;6.47;4.50;;;9.30;1.00;;;;;;4954455;28;20438;-48
2023/01/08 00:38:28;;;;;;;4.33;3.87;;;9.20;1.00;;;;;;4955414;29;20417;-48
2023/01/08 00:40:54;;;;;;;6.37;4.30;;;9.20;1.00;;;;;;4938373;29;20196;-48
2023/01/08 00:43:19;;;;;;;4.97;4.03;;;9.20;1.00;;;;;;4954758;29;20454;-48
2023/01/08 00:45:45;;;;;;;6.13;4.20;;;9.20;1.00;;;;;;4954957;29;20617;-48
2023/01/08 00:48:11;;;;;;;5.73;4.00;;;9.30;1.00;;;;;;4955141;29;20661;-48
2023/01/08 00:50:37;;;;;;;4.23;3.70;;;9.30;1.00;;;;;;4954890;29;20205;-48
2023/01/08 00:53:02;;;;;;;4.67;3.80;;;9.20;99.90;;;;;;4954401;29;20225;-48
2023/01/08 00:55:28;;;;;;;4.33;3.50;;;9.20;1.00;;;;;;4954554;29;20759;-48
2023/01/08 00:57:54;;;;;;;3.60;3.30;;;9.30;1.00;;;;;;4955142;29;20215;-48
2023/01/08 01:00:20;;;;;;;4.40;3.87;;;9.30;1.00;;;;;;4953975;29;20449;-48
2023/01/08 01:02:46;;;;;;;6.17;4.10;;;9.20;99.90;;;;;;4954137;29;20532;-48
2023/01/08 01:05:14;;;;;;;6.83;4.60;;;9.30;99.90;;;;;;4954838;29;20671;-48
2023/01/08 01:07:41;;;;;;;5.60;4.40;;;9.30;90.00;;;;;;4954918;28;20178;-48
2023/01/08 01:10:07;;;;;;;9.13;4.47;;;9.20;71.20;;;;;;4954874;29;20432;-48
2023/01/08 01:12:33;;;;;;;4.37;3.80;;;9.20;60.50;;;;;;4953059;29;20500;-48
2023/01/08 01:14:59;;;;;;;4.77;4.00;;;9.20;53.00;;;;;;4954416;29;21014;-48
2023/01/08 01:17:24;;;;;;;5.03;4.00;;;9.20;51.00;;;;;;4954256;29;20213;-48
2023/01/08 01:19:50;;;;;;;3.83;3.43;;;9.30;36.10;;;;;;4954653;29;20926;-48
2023/01/08 01:22:16;;;;;;;4.43;3.90;;;9.40;29.90;;;;;;4952948;29;20205;-48
2023/01/08 01:24:41;;;;;;;4.63;3.87;;;9.40;25.10;;;;;;4953656;28;20265;-48
2023/01/08 01:27:07;;;;;;;4.87;4.07;;;9.40;29.60;;;;;;4952993;29;20193;-48
2023/01/08 01:29:34;;;;;;;6.30;4.43;;;9.40;36.90;;;;;;4953808;29;20256;-48
2023/01/08 01:31:59;;;;;;;5.50;4.00;;;9.50;29.40;;;;;;4936167;29;20232;-48
2023/01/08 01:34:25;;;;;;;4.47;3.60;;;9.50;26.50;;;;;;4953526;28;20406;-49
2023/01/08 01:36:51;;;;;;;5.37;4.00;;;9.50;22.50;;;;;;4954595;29;20182;-48
2023/01/08 01:39:18;;;;;;;4.27;3.60;;;9.50;27.50;;;;;;4954488;28;20273;-48
2023/01/08 01:41:45;;;;;;;7.57;3.60;;;9.50;33.00;;;;;;4953514;29;20216;-49
2023/01/08 01:44:40;;;;;;;4.90;3.70;;;9.50;37.20;;;;;;4953704;29;20460;-48
2023/01/08 01:47:24;;;;;;;7.20;3.90;;;9.50;30.20;;;;;;4954126;29;20433;-48
2023/01/08 01:50:04;;;;;;;6.70;3.87;;;9.60;17.70;;;;;;4953945;29;20448;-48
2023/01/08 01:52:35;;;;;;;4.10;3.70;;;9.70;12.10;;;;;;4943106;28;20485;-48
2023/01/08 01:55:03;;;;;;;5.50;3.90;;;9.70;13.80;;;;;;4953556;29;20413;-48
2023/01/08 01:57:30;;;;;;;4.83;4.13;;;9.70;13.40;;;;;;4953799;29;20425;-48
2023/01/08 01:59:57;;;;;;;6.23;4.40;;;9.70;17.50;;;;;;4953938;29;20807;-48
2023/01/08 02:02:22;;;;;;;7.47;4.67;;;9.70;16.20;;;;;;4953174;29;20477;-48
2023/01/08 02:04:48;;;;;;;4.27;3.87;;;9.70;14.10;;;;;;4954073;29;20432;-48
2023/01/08 02:07:30;;;;;;;5.60;4.23;;;9.70;14.40;;;;;;4953838;28;20534;-48
2023/01/08 02:10:22;;;;;;;4.83;4.30;;;9.70;15.10;;;;;;4954121;29;20496;-48
2023/01/08 02:13:01;;;;;;;3.80;3.50;;;9.70;13.40;;;;;;4953086;28;20905;-55
2023/01/08 02:15:39;;;;;;;6.83;4.10;;;9.60;15.80;;;;;;4953300;29;20439;-51
2023/01/08 02:18:18;;;;;;;5.70;4.50;;;9.60;18.00;;;;;;4953791;29;20786;-55
2023/01/08 02:21:00;;;;;;;5.50;3.90;;;9.60;24.50;;;;;;4953330;29;21373;-48
2023/01/08 02:23:41;;;;;;;4.23;3.83;;;9.60;26.30;;;;;;4952635;29;20480;-48
2023/01/08 02:26:38;;;;;;;5.10;3.73;;;9.50;29.80;;;;;;4953183;29;21095;-48
2023/01/08 02:29:07;;;;;;;5.97;3.83;;;9.50;32.40;;;;;;4953051;29;20821;-48
2023/01/08 02:31:36;;;;;;;5.30;4.10;;;9.50;30.70;;;;;;4952708;28;20501;-48
2023/01/08 02:34:01;;;;;;;6.70;4.43;;;9.50;29.50;;;;;;4953082;29;20452;-48
2023/01/08 02:36:51;;;;;;;5.73;4.30;;;9.50;39.40;;;;;;4953332;29;20801;-48
2023/01/08 02:39:29;;;;;;;4.27;3.80;;;9.40;72.80;;;;;;4953870;29;20185;-48
2023/01/08 02:42:05;;;;;;;5.13;3.50;;;9.30;72.40;;;;;;4953241;29;20910;-48
2023/01/08 02:44:53;;;;;;;5.10;3.80;;;9.30;90.00;;;;;;4935722;29;20444;-48
2023/01/08 02:47:55;;;;;;;5.13;4.00;;;9.30;97.30;;;;;;4956625;28;20444;-48
2023/01/08 02:50:33;;;;;;;5.10;3.93;;;9.40;94.70;;;;;;4924394;29;20452;-48
2023/01/08 02:53:16;;;;;;;5.40;3.77;;;9.40;92.50;;;;;;4954970;29;20551;-48
2023/01/08 02:55:48;;;;;;;5.50;4.07;;;9.40;90.70;;;;;;4942374;29;20499;-48
2023/01/08 02:58:14;;;;;;;6.97;4.13;;;9.30;90.20;;;;;;4957045;29;20404;-48
2023/01/08 03:00:43;;;;;;;5.20;3.43;;;9.30;99.90;;;;;;4956319;29;20436;-48
2023/01/08 03:03:33;;;;;;;4.50;4.10;;;9.30;99.90;;;;;;4956186;29;20451;-48
2023/01/08 03:06:06;;;;;;;4.33;3.93;;;9.20;99.90;;;;;;4956928;29;20405;-48
2023/01/08 03:08:38;;;;;;;7.53;3.97;;;9.30;99.90;;;;;;4956337;29;20429;-48
2023/01/08 03:11:12;;;;;;;3.93;3.20;;;9.30;99.90;;;;;;4956408;28;20775;-48
2023/01/08 03:14:08;;;;;;;5.03;3.57;;;9.30;99.90;;;;;;4939074;29;20436;-48
2023/01/08 03:16:37;;;;;;;5.43;3.87;;;9.30;99.90;;;;;;4938974;29;20448;-48
2023/01/08 03:19:21;;;;;;;4.80;3.87;;;9.20;99.90;;;;;;4956749;29;20445;-48
2023/01/08 03:21:49;;;;;;;5.57;4.17;;;9.20;99.90;;;;;;4956735;29;20410;-48
2023/01/08 03:24:21;;;;;;;4.40;3.87;;;9.30;99.90;;;;;;4955893;29;20505;-48
2023/01/08 03:26:50;;;;;;;5.03;3.50;;;9.20;99.90;;;;;;4955902;29;20773;-48
2023/01/08 03:29:18;;;;;;;4.60;3.77;;;9.10;99.90;;;;;;4954869;29;20448;-48
2023/01/08 03:31:46;;;;;;;5.43;3.60;;;9.10;99.90;;;;;;4954652;29;20527;-48
2023/01/08 03:34:14;;;;;;;5.50;3.40;;;9.10;99.90;;;;;;4937534;29;20445;-48
2023/01/08 03:36:45;;;;;;;4.10;3.70;;;9.10;99.90;;;;;;4953676;29;20425;-48
2023/01/08 03:39:40;;;;;;;5.07;3.60;;;9.00;99.90;;;;;;4932474;29;20477;-48
2023/01/08 03:42:10;;;;;;;7.20;4.33;;;9.10;99.90;;;;;;4945795;28;20440;-48
2023/01/08 03:44:36;;;;;;;4.50;3.73;;;9.10;99.90;;;;;;4955528;29;20449;-48
2023/01/08 03:47:04;;;;;;;4.67;3.77;;;9.00;99.90;;;;;;4956344;29;20405;-48
2023/01/08 03:49:30;;;;;;;5.47;3.90;;;9.10;99.90;;;;;;4955986;29;20460;-48
2023/01/08 03:51:55;;;;;;;6.00;4.27;;;9.10;99.90;;;;;;4955299;29;20464;-48
2023/01/08 03:54:30;;;;;;;7.37;4.07;;;9.10;99.90;;;;;;4956065;28;20197;-48
2023/01/08 03:56:56;;;;;;;5.37;3.83;;;9.20;99.90;;;;;;4955550;28;20196;-48
2023/01/08 03:59:21;;;;;;;4.53;3.77;;;9.20;99.90;;;;;;4938361;29;20433;-48
2023/01/08 04:01:47;;;;;;;3.93;3.57;;;9.20;99.90;;;;;;4955512;29;20227;-49
2023/01/08 04:04:12;;;;;;;5.53;3.60;;;9.30;99.90;;;;;;4956069;29;20185;-48
2023/01/08 04:06:38;;;;;;;4.17;3.63;;;9.30;99.90;;;;;;4956321;29;20200;-48
2023/01/08 04:09:03;;;;;;;6.67;3.73;;;9.30;99.90;;;;;;4955982;29;20220;-48
2023/01/08 04:11:30;;;;;;;5.70;4.20;;;9.30;99.90;;;;;;4955259;28;20592;-49
2023/01/08 04:13:55;;;;;;;7.63;3.90;;;9.40;99.90;;;;;;4955516;29;20194;-48
2023/01/08 04:16:22;;;;;;;5.80;4.00;;;9.50;99.90;;;;;;4954368;29;20452;-48
2023/01/08 04:18:47;;;;;;;6.40;4.00;;;9.50;99.90;;;;;;4954031;29;20193;-48
2023/01/08 04:21:13;;;;;;;4.33;3.40;;;9.60;99.90;;;;;;4955028;28;20447;-49
2023/01/08 04:23:38;;;;;;;5.33;3.40;;;9.60;99.90;;;;;;4955340;28;20253;-49
2023/01/08 04:26:05;;;;;;;5.07;4.13;;;9.60;99.90;;;;;;4955368;28;20190;-48
2023/01/08 04:28:31;;;;;;;5.73;3.60;;;9.60;99.90;;;;;;4955746;29;20714;-48
2023/01/08 04:30:57;;;;;;;4.87;3.43;;;9.70;94.00;;;;;;4954706;29;20548;-49
2023/01/08 04:33:24;;;;;;;4.67;3.50;;;9.70;77.60;;;;;;4955797;29;20190;-48
2023/01/08 04:35:50;;;;;;;4.30;3.57;;;9.70;79.00;;;;;;4955772;28;20185;-48
2023/01/08 04:38:15;;;;;;;5.17;4.20;;;9.70;86.60;;;;;;4954106;28;20441;-48
2023/01/08 04:40:41;;;;;;;7.17;3.47;;;9.70;84.50;;;;;;4944564;29;20229;-48
2023/01/08 04:43:06;;;;;;;4.33;3.73;;;9.60;86.60;;;;;;4954607;29;20185;-48
2023/01/08 04:45:32;;;;;;;4.87;3.63;;;9.60;90.20;;;;;;4955316;29;20189;-48
2023/01/08 04:47:59;;;;;;;7.17;3.83;;;9.60;92.40;;;;;;4953196;29;20196;-48
2023/01/08 04:50:25;;;;;;;4.70;3.63;;;9.60;98.20;;;;;;4954669;29;20409;-48
2023/01/08 04:52:51;;;;;;;7.13;3.83;;;9.60;96.60;;;;;;4954220;29;20867;-48
2023/01/08 04:55:17;;;;;;;5.50;4.40;;;9.60;94.80;;;;;;4954237;29;20447;-48
2023/01/08 04:57:43;;;;;;;5.87;4.17;;;9.60;98.60;;;;;;4954462;29;20444;-48
2023/01/08 05:00:09;;;;;;;4.83;3.87;;;9.60;99.90;;;;;;4955138;28;20252;-48
2023/01/08 05:02:35;;;;;;;8.07;4.87;;;9.50;99.90;;;;;;4953897;29;20198;-48
2023/01/08 05:05:01;;;;;;;5.67;4.07;;;9.60;99.90;;;;;;4953854;28;20448;-48
2023/01/08 05:07:26;;;;;;;4.97;4.43;;;9.50;99.90;;;;;;4953229;28;20221;-48
2023/01/08 05:09:52;;;;;;;4.23;3.83;;;9.60;99.90;;;;;;4954872;28;20193;-48
2023/01/08 05:12:17;;;;;;;4.30;3.90;;;9.60;99.90;;;;;;4954264;29;20256;-48
2023/01/08 05:14:43;;;;;;;5.17;4.00;;;9.50;99.90;;;;;;4952974;29;20194;-49
2023/01/08 05:17:09;;;;;;;4.27;3.77;;;9.50;99.90;;;;;;4954414;28;20178;-48
2023/01/08 05:19:34;;;;;;;4.30;3.90;;;9.50;99.90;;;;;;4954356;29;20276;-48
2023/01/08 05:22:00;;;;;;;4.50;3.60;;;9.50;99.90;;;;;;4954208;29;20288;-48
2023/01/08 05:24:26;;;;;;;4.73;3.60;;;9.40;99.90;;;;;;4953838;28;20245;-48
2023/01/08 05:26:51;;;;;;;8.47;3.90;;;9.40;99.90;;;;;;4953881;29;20276;-48
2023/01/08 05:29:17;;;;;;;8.40;3.87;;;9.40;99.90;;;;;;4953356;28;20193;-48
2023/01/08 05:31:43;;;;;;;5.40;4.00;;;9.30;99.90;;;;;;4953366;29;20216;-48
2023/01/08 05:34:08;;;;;;;7.10;4.00;;;9.30;99.90;;;;;;4954043;29;20707;-48
2023/01/08 05:36:34;;;;;;;5.20;4.67;;;9.30;99.90;;;;;;4954296;29;20629;-48
2023/01/08 05:38:59;;;;;;;7.60;4.00;;;9.40;99.90;;;;;;4953066;29;20186;-48
2023/01/08 05:41:25;;;;;;;4.47;3.63;;;9.40;99.90;;;;;;4954026;29;20193;-48
2023/01/08 05:43:51;;;;;;;10.93;4.10;;;9.50;99.90;;;;;;4953755;29;20656;-48
2023/01/08 05:46:16;;;;;;;4.97;4.07;;;9.40;99.90;;;;;;4954447;29;20531;-48
2023/01/08 05:48:42;;;;;;;4.40;4.00;;;9.40;99.90;;;;;;4935332;29;20281;-48
2023/01/08 05:51:07;;;;;;;5.87;4.10;;;9.40;99.90;;;;;;4953970;29;20193;-48
2023/01/08 05:53:33;;;;;;;5.00;4.50;;;9.40;99.90;;;;;;4953343;28;20639;-48
2023/01/08 05:56:07;;;;;;;7.27;5.13;;;9.40;99.90;;;;;;4952675;28;20190;-48
2023/01/08 05:58:33;;;;;;;4.40;4.00;;;9.40;99.90;;;;;;4954107;29;20636;-48
2023/01/08 06:01:08;;;;;;;4.50;3.97;;;9.40;99.90;;;;;;4953589;29;20449;-48
2023/01/08 06:03:33;;;;;;;6.77;4.00;;;9.40;99.90;;;;;;4936929;29;20189;-48
2023/01/08 06:06:01;;;;;;;5.40;3.70;;;9.50;99.90;;;;;;4953166;29;20978;-48
2023/01/08 06:08:28;;;;;;;5.37;3.40;;;9.50;99.90;;;;;;4952731;29;20198;-48
2023/01/08 06:10:57;;;;;;;4.00;3.60;;;9.50;99.90;;;;;;4951330;28;20537;-48
2023/01/08 06:13:22;;;;;;;6.53;4.33;;;9.50;99.90;;;;;;4953071;29;20515;-48
2023/01/08 06:15:48;;;;;;;4.97;4.40;;;9.50;99.90;;;;;;4953308;29;20846;-48
2023/01/08 06:18:13;;;;;;;6.60;3.80;;;9.50;99.90;;;;;;4953648;28;20220;-48
2023/01/08 06:20:39;;;;;;;4.53;4.13;;;9.50;99.90;;;;;;4951862;28;20197;-48
2023/01/08 06:23:04;;;;;;;5.13;3.73;;;9.40;99.90;;;;;;4952231;29;20268;-48
2023/01/08 06:25:31;;;;;;;4.20;3.80;;;9.40;99.90;;;;;;4935790;29;20202;-48
2023/01/08 06:27:56;;;;;;;6.23;3.60;;;9.50;99.90;;;;;;4944230;29;20651;-48
2023/01/08 06:30:22;;;;;;;4.43;3.80;;;9.50;99.90;;;;;;4943053;29;20445;-48
2023/01/08 06:32:47;;;;;;;6.20;3.70;;;9.50;99.90;;;;;;4952268;29;20228;-50
2023/01/08 06:35:13;;;;;;;5.87;4.10;;;9.40;99.90;;;;;;4952222;28;20217;-50
2023/01/08 06:37:38;;;;;;;5.70;3.73;;;9.30;99.90;;;;;;4952962;29;20534;-51
2023/01/08 06:40:05;;;;;;;4.60;4.00;;;9.30;99.90;;;;;;4953523;29;20954;-50
2023/01/08 06:42:30;;;;;;;6.83;4.20;;;9.30;99.90;;;;;;4952672;29;20284;-50
2023/01/08 06:44:56;;;;;;;4.27;3.40;;;9.30;99.90;;;;;;4953412;29;20500;-50
2023/01/08 06:47:21;;;;;;;5.40;3.80;;;9.20;99.90;;;;;;4952484;28;20204;-50
2023/01/08 06:49:47;;;;;;;5.80;3.70;;;9.30;99.90;;;;;;4952243;28;20193;-50
2023/01/08 06:52:12;;;;;;;6.07;4.00;;;9.20;99.90;;;;;;4951846;28;20300;-50
2023/01/08 06:54:38;;;;;;;5.77;3.60;;;9.30;99.90;;;;;;4953173;29;20209;-50
2023/01/08 06:57:03;;;;;;;4.90;4.10;;;9.20;99.90;;;;;;4952909;29;20529;-48
2023/01/08 06:59:29;;;;;;;8.70;4.23;;;9.20;99.90;;;;;;4935932;29;20624;-48
2023/01/08 07:01:54;;;;;;;4.07;3.73;;;9.30;99.90;;;;;;4952851;29;20636;-48
2023/01/08 07:04:20;;;;;;;5.00;3.77;;;9.20;99.90;;;;;;4953274;29;20182;-48
2023/01/08 07:06:46;;;;;;;5.80;4.23;;;9.20;99.90;;;;;;4952061;29;20205;-48
2023/01/08 07:09:13;;;;;;;5.20;3.97;;;9.20;99.90;;;;;;4952220;29;20656;-49
2023/01/08 07:11:40;;;;;;;4.30;3.77;;;9.10;99.90;;;;;;4953082;29;20496;-49
2023/01/08 07:14:05;;;;;;;5.07;3.53;;;9.10;99.90;;;;;;4953187;29;20422;-48
2023/01/08 07:16:31;;;;;;;5.90;4.07;;;9.20;1.00;;;;;;4952547;28;20528;-48
2023/01/08 07:18:57;;;;;;;6.27;4.23;;;9.20;99.90;;;;;;4952911;29;20216;-48
2023/01/08 07:21:23;;;;;;;6.73;3.90;;;9.30;99.90;;;;;;4953803;28;20186;-48
2023/01/08 07:23:49;;;;;;;5.07;3.80;;;9.20;99.90;;;;;;4952528;28;20588;-48
2023/01/08 07:26:14;;;;;;;8.63;3.63;;;9.20;99.90;;;;;;4952759;28;20430;-48
2023/01/08 07:28:41;;;;;;;4.93;3.63;;;9.20;99.90;;;;;;4951083;29;20205;-48
2023/01/08 07:31:06;;;;;;;5.43;4.27;;;9.20;99.90;;;;;;4952223;29;20276;-49
2023/01/08 07:33:32;;;;;;;3.70;3.40;;;9.20;99.90;;;;;;4954128;28;20887;-48
2023/01/08 07:35:58;;;;;;;3.80;3.50;;;9.20;99.90;;;;;;4956826;28;20185;-48
2023/01/08 07:38:24;;;;;;;4.83;3.87;;;9.20;1.00;;;;;;4955690;29;20448;-48
2023/01/08 07:40:50;;;;;;;6.00;3.40;;;9.20;1.00;;;;;;4956528;29;20184;-53
2023/01/08 07:43:15;;;;;;;4.07;3.50;;;9.30;1.00;;;;;;4954011;29;20209;-48
2023/01/08 07:45:41;;;;;;;5.00;3.83;;;9.40;99.90;;;;;;4956551;29;20201;-48
2023/01/08 07:48:09;;;;;;;4.20;3.70;;;9.40;99.90;;;;;;4955133;28;20316;-48
2023/01/08 07:50:36;;;;;;;4.13;3.53;;;9.40;99.90;;;;;;4953539;29;20201;-48
2023/01/08 07:53:02;;;;;;;4.37;3.57;;;9.40;99.90;;;;;;4956013;29;20477;-48
2023/01/08 07:55:29;;;;;;;6.60;3.70;;;9.30;99.90;;;;;;4955871;28;20734;-48
2023/01/08 07:57:55;;;;;;;4.83;3.83;;;9.30;99.90;;;;;;4955076;29;20444;-48
2023/01/08 08:00:21;;;;;;;4.77;3.37;;;9.30;1.00;;;;;;4955172;29;20440;-48
2023/01/08 08:02:46;;;;;;;4.70;3.33;;;9.40;99.90;;;;;;4956214;28;20196;-48
2023/01/08 08:05:12;;;;;;;4.73;3.63;;;9.40;1.00;;;;;;4954851;28;20456;-48
2023/01/08 08:07:38;;;;;;;12.93;3.93;;;9.50;1.00;;;;;;4955827;29;20556;-48
2023/01/08 08:10:04;;;;;;;3.93;3.53;;;9.50;1.00;;;;;;4956443;28;20189;-48
2023/01/08 08:12:30;;;;;;;9.60;4.07;;;9.50;1.00;;;;;;4955429;29;20212;-48
2023/01/08 08:14:56;;;;;;;4.47;3.87;;;9.50;35.50;;;;;;4956188;29;20425;-48
2023/01/08 08:17:21;;;;;;;5.60;3.90;;;9.40;1.00;;;;;;4943013;28;20449;-48
2023/01/08 08:19:47;;;;;;;5.47;3.90;;;9.30;99.90;;;;;;4954785;29;20204;-48
2023/01/08 08:22:13;;;;;;;4.60;3.67;;;9.20;99.90;;;;;;4955036;29;20190;-48
2023/01/08 08:24:39;;;;;;;6.07;4.10;;;9.20;81.20;;;;;;4954529;29;20241;-49
2023/01/08 08:27:04;;;;;;;5.07;4.17;;;9.10;99.90;;;;;;4955639;29;20174;-48
2023/01/08 08:29:30;;;;;;;5.47;4.17;;;9.10;1.00;;;;;;4955334;28;20826;-49
2023/01/08 08:31:56;;;;;;;4.90;4.23;;;9.10;99.90;;;;;;4949570;28;20679;-49
2023/01/08 08:34:21;;;;;;;14.03;4.37;;;9.10;1.00;;;;;;4954926;29;20201;-48
2023/01/08 08:36:48;;;;;;;7.80;4.00;;;9.10;99.90;;;;;;4955555;28;20640;-48
2023/01/08 08:39:14;;;;;;;5.00;4.27;;;9.20;99.90;;;;;;4953130;29;20190;-48
2023/01/08 08:41:41;;;;;;;6.53;4.27;;;9.20;49.80;;;;;;4954255;29;20455;-48
2023/01/08 08:44:06;;;;;;;9.10;4.27;;;9.20;1.00;;;;;;4953455;28;20863;-49
2023/01/08 08:46:32;;;;;;;6.03;4.23;;;9.20;99.90;;;;;;4955291;28;20445;-49
2023/01/08 08:48:58;;;;;;;8.00;4.50;;;9.10;99.90;;;;;;4955118;29;20189;-48
2023/01/08 08:51:23;;;;;;;4.03;3.60;;;9.10;1.00;;;;;;4955065;28;20213;-49
2023/01/08 08:53:49;;;;;;;6.73;3.83;;;9.20;14.30;;;;;;4955247;29;20181;-49
2023/01/08 08:56:15;;;;;;;4.80;4.30;;;9.20;1.00;;;;;;4954826;29;20431;-48
2023/01/08 08:58:40;;;;;;;8.27;4.73;;;9.30;76.60;;;;;;4954990;29;20210;-48
2023/01/08 09:01:07;;;;;;;8.90;4.13;;;9.30;1.00;;;;;;4954859;29;20213;-49
2023/01/08 09:03:33;;;;;;;5.50;4.37;;;9.30;99.90;;;;;;4954750;28;20186;-48
2023/01/08 09:05:58;;;;;;;5.23;4.33;;;9.40;1.00;;;;;;4955212;29;20445;-48
2023/01/08 09:08:24;;;;;;;8.10;5.10;;;9.30;1.00;;;;;;4954548;29;20402;-48
2023/01/08 09:10:50;;;;;;;6.73;4.43;;;9.30;1.00;;;;;;4955285;28;20194;-49
2023/01/08 09:13:16;;;;;;;7.37;4.50;;;9.30;99.90;;;;;;4954418;29;20473;-48
2023/01/08 09:15:41;;;;;;;7.57;4.60;;;9.30;1.00;;;;;;4954468;28;20265;-48
2023/01/08 09:18:07;;;;;;;4.57;3.90;;;9.20;99.90;;;;;;4954717;29;20174;-48
2023/01/08 09:20:33;;;;;;;5.10;4.17;;;9.30;1.00;;;;;;4954493;29;20185;-48
2023/01/08 09:22:59;;;;;;;6.17;4.10;;;9.30;1.00;;;;;;4954119;28;20232;-48
2023/01/08 09:25:25;;;;;;;4.63;3.70;;;9.30;25.60;;;;;;4954441;29;20633;-48
2023/01/08 09:28:06;;;;;;;5.10;4.03;;;9.40;99.90;;;;;;4954211;29;20528;-48
2023/01/08 09:30:31;;;;;;;6.80;4.23;;;9.40;1.00;;;;;;4954929;29;20198;-48
2023/01/08 09:32:58;;;;;;;5.40;4.10;;;9.50;1.00;;;;;;4952879;29;20531;-49
2023/01/08 09:35:25;;;;;;;3.87;3.37;;;9.50;99.90;;;;;;4953887;29;20218;-49
2023/01/08 09:37:54;;;;;;;4.57;3.83;;;9.50;50.40;;;;;;4945893;29;20527;-48
2023/01/08 09:40:23;;;;;;;4.70;3.80;;;9.50;1.00;;;;;;4952764;29;20449;-49
2023/01/08 09:42:54;;;;;;;6.03;3.80;;;9.50;1.00;;;;;;4936554;29;20449;-50
2023/01/08 09:45:29;;;;;;;4.30;3.30;;;9.60;1.00;;;;;;4955477;28;20441;-48
2023/01/08 09:47:57;;;;;;;5.20;3.23;;;9.60;99.90;;;;;;4950038;28;20543;-48
2023/01/08 09:50:26;;;;;;;3.93;3.57;;;9.60;99.90;;;;;;4943460;29;21226;-50
2023/01/08 09:52:52;;;;;;;3.90;3.50;;;9.60;99.90;;;;;;4941426;29;21073;-48
2023/01/08 09:55:18;;;;;;;6.53;4.60;;;9.60;95.20;;;;;;4935688;29;20502;-48
2023/01/08 09:57:44;;;;;;;6.23;4.07;;;9.60;16.90;;;;;;4936755;29;20469;-48
2023/01/08 10:00:21;;;;;;;4.30;3.70;;;9.70;1.00;;;;;;4954078;29;20421;-48
2023/01/08 10:02:47;;;;;;;5.33;3.33;;;9.60;1.00;;;;;;4954161;29;20923;-48
2023/01/08 10:05:16;;;;;;;4.10;3.53;;;9.70;1.00;;;;;;4928434;29;20553;-49
2023/01/08 10:07:42;;;;;;;4.10;3.50;;;9.70;1.00;;;;;;4942986;28;20485;-49
2023/01/08 10:10:21;;;;;;;3.63;3.27;;;9.80;99.90;;;;;;4921049;29;20464;-49
2023/01/08 10:12:48;;;;;;;3.03;2.73;;;9.80;99.90;;;;;;4957787;28;20823;-49
2023/01/08 10:15:18;;;;;;;3.80;2.90;;;9.90;1.00;;;;;;4948811;28;20429;-48
2023/01/08 10:17:49;;;;;;;8.23;3.40;;;9.90;1.00;;;;;;4930002;29;20460;-49
2023/01/08 10:20:23;;;;;;;5.77;3.00;;;9.90;1.00;;;;;;4933032;28;20566;-49
2023/01/08 10:22:52;;;;;;;4.20;3.40;;;9.90;1.00;;;;;;4936968;29;20449;-49
2023/01/08 10:25:21;;;;;;;3.60;3.03;;;10.10;1.00;;;;;;4942029;28;20449;-49
2023/01/08 10:28:01;;;;;;;3.90;3.20;;;10.10;99.90;;;;;;4940672;29;21444;-49
2023/01/08 10:30:29;;;;;;;6.47;3.10;;;10.00;99.90;;;;;;4936673;29;20449;-48
2023/01/08 10:32:57;;;;;;;5.33;3.10;;;10.00;99.90;;;;;;4933314;28;21046;-49
2023/01/08 10:35:40;;;;;;;2.97;2.67;;;10.00;99.90;;;;;;4931827;29;20472;-48
2023/01/08 10:38:06;;;;;;;4.27;2.50;;;10.00;99.90;;;;;;4932429;28;20449;-48
2023/01/08 10:40:46;;;;;;;7.27;2.73;;;10.00;62.20;;;;;;4950760;29;20441;-48
2023/01/08 10:43:19;;;;;;;6.87;2.70;;;10.00;1.00;;;;;;4931416;29;20453;-49
2023/01/08 10:46:00;;;;;;;5.60;2.57;;;10.10;1.00;;;;;;4946722;29;20527;-48
2023/01/08 10:48:45;;;;;;;3.40;2.17;;;10.10;1.00;;;;;;4948307;28;20453;-55
2023/01/08 10:51:17;;;;;;;5.87;2.43;;;10.10;1.00;;;;;;4954719;29;20429;-51
2023/01/08 10:53:43;;;;;;;4.47;2.40;;;10.10;1.00;;;;;;4946553;29;20551;-51
2023/01/08 10:56:42;;;;;;;3.60;2.50;;;10.10;1.00;;;;;;4953388;29;20779;-51
2023/01/08 10:59:26;;;;;;;3.00;2.27;;;10.00;1.00;;;;;;4943301;29;20516;-50
2023/01/08 11:01:57;;;;;;;3.10;2.20;;;10.10;1.00;;;;;;4953226;28;20895;-51
2023/01/08 11:04:32;;;;;;;2.43;2.23;;;10.10;1.00;;;;;;4941517;28;20449;-51
2023/01/08 11:07:04;;;;;;;7.03;2.50;;;10.10;1.00;;;;;;4948845;28;20444;-51
2023/01/08 11:09:33;;;;;;;3.23;2.47;;;10.10;1.00;;;;;;4955521;29;20919;-51
2023/01/08 11:11:59;;;;;;;4.27;2.60;;;10.00;1.00;;;;;;4952130;29;20495;-51
2023/01/08 11:14:34;;;;;;;3.97;2.70;;;10.10;1.00;;;;;;4954675;29;20771;-51
2023/01/08 11:17:01;;;;;;;5.93;2.93;;;10.10;1.00;;;;;;4949478;29;20450;-51
2023/01/08 11:19:34;;;;;;;6.63;2.77;;;10.10;33.20;;;;;;4936111;29;20450;-51
2023/01/08 11:22:02;;;;;;;3.00;2.70;;;10.10;99.90;;;;;;4949033;29;20449;-51
2023/01/08 11:24:35;;;;;;;4.80;2.90;;;10.10;99.90;;;;;;4948222;29;20952;-51
2023/01/08 11:27:10;;;;;;;5.00;2.93;;;10.20;99.90;;;;;;4937345;29;20497;-51
2023/01/08 11:30:00;;;;;;;3.43;2.93;;;10.50;99.90;;;;;;4948128;29;20416;-49
2023/01/08 11:32:47;;;;;;;3.30;2.87;;;10.90;99.90;;;;;;4944245;29;20481;-48
2023/01/08 11:35:43;;;;;;;3.50;2.80;;;11.20;1.00;;;;;;4953750;29;20533;-49
2023/01/08 11:38:11;;;;;;;3.67;3.07;;;11.70;99.90;;;;;;4950119;29;20441;-49
2023/01/08 11:40:58;;;;;;;3.90;2.83;;;12.60;99.90;;;;;;4943698;28;20787;-49
2023/01/08 11:43:29;;;;;;;3.00;2.60;;;13.10;85.80;;;;;;4952244;28;20491;-49
2023/01/08 11:46:01;;;;;;;2.70;2.50;;;13.40;1.00;;;;;;4947465;28;20441;-49
2023/01/08 11:48:34;;;;;;;3.90;2.57;;;13.30;1.00;;;;;;4954457;29;20817;-48
2023/01/08 11:51:30;;;;;;;4.10;2.73;;;13.10;1.00;;;;;;4947396;29;20459;-49
2023/01/08 11:54:23;;;;;;;4.37;2.87;;;12.80;1.00;;;;;;4944471;29;20445;-48
2023/01/08 11:57:16;;;;;;;4.63;2.60;;;12.50;1.00;;;;;;4943582;28;20436;-48
2023/01/08 12:00:12;;;;;;;2.77;2.57;;;12.00;1.00;;;;;;4932385;28;20457;-48
2023/01/08 12:02:54;;;;;;;2.87;2.17;;;12.00;1.00;;;;;;4936848;28;20771;-48
2023/01/08 12:05:51;;;;;;;3.10;2.40;;;12.40;1.00;;;;;;4933580;28;20973;-49
2023/01/08 12:08:52;;;;;;;3.40;2.23;;;13.20;1.00;;;;;;4954607;28;20433;-48
2023/01/08 12:11:35;;;;;;;2.53;2.13;;;13.90;1.00;;;;;;4930743;29;20519;-48
2023/01/08 12:14:09;;;;;;;4.60;2.10;;;14.40;1.00;;;;;;4939337;28;20453;-48
2023/01/08 12:17:10;;;;;;;4.60;2.20;;;14.60;1.00;;;;;;4933252;28;20460;-48
2023/01/08 12:19:44;;;;;;;3.13;2.17;;;14.50;1.00;;;;;;4941959;28;20461;-49
2023/01/08 12:22:37;;;;;;;3.50;1.63;;;14.60;1.00;;;;;;4959377;28;21012;-47
2023/01/08 12:25:31;;;;;;;3.30;2.00;;;15.00;1.00;;;;;;4947627;28;20453;-48
2023/01/08 12:28:13;;;;;;;2.00;1.77;;;15.60;1.00;;;;;;4965100;28;21418;-49
2023/01/08 12:30:44;;;;;;;5.80;2.10;;;16.10;1.00;;;;;;4952751;28;20540;-49
2023/01/08 12:33:22;;;;;;;1.83;1.43;;;16.40;1.00;;;;;;4940355;28;20476;-49
2023/01/08 12:35:53;;;;;;;1.63;1.40;;;17.20;1.00;;;;;;4948421;28;20540;-48
2023/01/08 12:38:32;;;;;;;2.27;1.60;;;18.50;1.00;;;;;;4953993;28;20449;-49
2023/01/08 12:41:09;;;;;;;3.33;1.50;;;19.50;1.00;;;;;;4951841;28;21293;-49
2023/01/08 12:43:48;;;;;;;3.17;1.80;;;20.50;1.00;;;;;;4953009;28;20448;-49
2023/01/08 12:46:15;;;;;;;1.70;1.60;;;21.30;1.00;;;;;;4952730;28;20451;-49
2023/01/08 12:48:44;;;;;;;1.93;1.50;;;18.90;1.00;;;;;;4949929;28;20513;-49
2023/01/08 12:51:28;;;;;;;2.63;1.57;;;16.30;1.00;;;;;;4950310;28;20768;-49
2023/01/08 12:54:26;;;;;;;5.63;1.60;;;15.40;1.00;;;;;;4960871;28;20494;-48
2023/01/08 12:57:01;;;;;;;2.73;1.80;;;14.40;1.00;;;;;;4941872;28;20548;-49
2023/01/08 12:59:41;;;;;;;3.80;2.07;;;13.50;1.00;;;;;;4955340;28;20436;-49
2023/01/08 13:02:07;;;;;;;2.77;2.23;;;12.70;1.00;;;;;;4960810;28;20531;-49
2023/01/08 13:04:44;;;;;;;2.30;2.10;;;12.20;1.00;;;;;;4956379;28;20453;-49
2023/01/08 13:07:26;;;;;;;4.10;2.90;;;11.90;1.00;;;;;;4952642;28;20255;-49
2023/01/08 13:10:21;;;;;;;4.20;2.40;;;11.70;1.00;;;;;;4946995;28;20457;-49
2023/01/08 13:12:51;;;;;;;3.40;2.00;;;11.60;1.00;;;;;;4941086;28;20484;-48
2023/01/08 13:15:26;;;;;;;4.80;1.97;;;12.40;1.00;;;;;;4956145;28;20460;-48